Map

Track Data

SID SEASON NUMBER BASIN SUBBASIN NAME ISO_TIME NATURE LAT LON WMO_WIND WMO_PRES WMO_AGENCY TRACK_TYPE DIST2LAND LANDFALL IFLAG USA_AGENCY USA_ATCF_ID USA_LAT USA_LON USA_RECORD USA_STATUS USA_WIND USA_PRES USA_SSHS USA_R34_NE USA_R34_SE USA_R34_SW USA_R34_NW USA_R50_NE USA_R50_SE USA_R50_SW USA_R50_NW USA_R64_NE USA_R64_SE USA_R64_SW USA_R64_NW USA_POCI USA_ROCI USA_RMW USA_EYE TOKYO_LAT TOKYO_LON TOKYO_GRADE TOKYO_WIND TOKYO_PRES TOKYO_R50_DIR TOKYO_R50_LONG TOKYO_R50_SHORT TOKYO_R30_DIR TOKYO_R30_LONG TOKYO_R30_SHORT TOKYO_LAND CMA_LAT CMA_LON CMA_CAT CMA_WIND CMA_PRES HKO_LAT HKO_LON HKO_CAT HKO_WIND HKO_PRES NEWDELHI_LAT NEWDELHI_LON NEWDELHI_GRADE NEWDELHI_WIND NEWDELHI_PRES NEWDELHI_CI NEWDELHI_DP NEWDELHI_POCI REUNION_LAT REUNION_LON REUNION_TYPE REUNION_WIND REUNION_PRES REUNION_TNUM REUNION_CI REUNION_RMW REUNION_R34_NE REUNION_R34_SE REUNION_R34_SW REUNION_R34_NW REUNION_R50_NE REUNION_R50_SE REUNION_R50_SW REUNION_R50_NW REUNION_R64_NE REUNION_R64_SE REUNION_R64_SW REUNION_R64_NW BOM_LAT BOM_LON BOM_TYPE BOM_WIND BOM_PRES BOM_TNUM BOM_CI BOM_RMW BOM_R34_NE BOM_R34_SE BOM_R34_SW BOM_R34_NW BOM_R50_NE BOM_R50_SE BOM_R50_SW BOM_R50_NW BOM_R64_NE BOM_R64_SE BOM_R64_SW BOM_R64_NW BOM_ROCI BOM_POCI BOM_EYE BOM_POS_METHOD BOM_PRES_METHOD NADI_LAT NADI_LON NADI_CAT NADI_WIND NADI_PRES WELLINGTON_LAT WELLINGTON_LON WELLINGTON_WIND WELLINGTON_PRES DS824_LAT DS824_LON DS824_STAGE DS824_WIND DS824_PRES TD9636_LAT TD9636_LON TD9636_STAGE TD9636_WIND TD9636_PRES TD9635_LAT TD9635_LON TD9635_WIND TD9635_PRES TD9635_ROCI NEUMANN_LAT NEUMANN_LON NEUMANN_CLASS NEUMANN_WIND NEUMANN_PRES MLC_LAT MLC_LON MLC_CLASS MLC_WIND MLC_PRES USA_GUST BOM_GUST BOM_GUST_PER REUNION_GUST REUNION_GUST_PER USA_SEAHGT USA_SEARAD_NE USA_SEARAD_SE USA_SEARAD_SW USA_SEARAD_NW STORM_SPEED STORM_DIR
1855021S14076 1855 1 SI MM NOT_NAMED 1855-01-21 06:00:00 NR -13.9500 75.5500 reunion main 2021 2007 _____O____O___ -1 -13.6000 75.9000 99 9.90000 -14.3000 75.2000 7 2 229
1855021S14076 1855 1 SI MM NOT_NAMED 1855-01-21 09:00:00 NR -14.0190 75.4697 main 2007 1992 _____P____P___ -1 -13.5678 75.8631 99 -14.4703 75.0764 7 2 227
1855021S14076 1855 1 SI MM NOT_NAMED 1855-01-21 12:00:00 NR -14.0991 75.3812 main 1992 1978 _____P____P___ -1 -13.5458 75.8202 99 -14.6524 74.9422 7 3 226
1855021S14076 1855 1 SI MM NOT_NAMED 1855-01-21 15:00:00 NR -14.2013 75.2761 main 1978 1964 _____P____P___ -1 -13.5442 75.7653 99 -14.8583 74.7869 7 3 224
1855021S14076 1855 1 SI MM NOT_NAMED 1855-01-21 18:00:00 NR -14.3367 75.1463 main 1954 1935 _____P____O___ -1 -13.5733 75.6925 99 -15.1000 74.6000 7 4 222
1855021S14076 1855 1 SI MM NOT_NAMED 1855-01-21 21:00:00 NR -14.5134 74.9861 main 1935 1907 _____P____P___ -1 -13.6433 75.5957 99 -15.3836 74.3766 7 5 220
1855021S14076 1855 1 SI MM NOT_NAMED 1855-01-22 00:00:00 NR -14.7285 74.8022 main 1907 1875 _____P____P___ -1 -13.7642 75.4688 99 -15.6927 74.1355 7 6 219
1855021S14076 1855 1 SI MM NOT_NAMED 1855-01-22 03:00:00 NR -14.9760 74.6036 main 1875 1847 _____P____P___ -1 -13.9464 75.3057 99 -16.0055 73.9016 7 7 217
1855021S14076 1855 1 SI MM NOT_NAMED 1855-01-22 06:00:00 NR -15.2500 74.4000 reunion main 1847 1815 _____O____O___ -1 -14.2000 75.1000 99 9.90000 -16.3000 73.7000 7 7 214
1855021S14076 1855 1 SI MM NOT_NAMED 1855-01-22 09:00:00 NR -15.5369 74.2042 main 1815 1784 _____P____P___ -1 -14.5315 74.8488 99 -16.5424 73.5596 7 7 212
1855021S14076 1855 1 SI MM NOT_NAMED 1855-01-22 12:00:00 NR -15.8491 74.0085 main 1784 1749 _____P____P___ -1 -14.9334 74.5625 99 -16.7648 73.4546 7 8 210
1855021S14076 1855 1 SI MM NOT_NAMED 1855-01-22 15:00:00 NR -16.1871 73.8137 main 1749 1719 _____P____P___ -1 -15.3944 74.2551 99 -16.9799 73.3722 7 8 208
1855021S14076 1855 1 SI MM NOT_NAMED 1855-01-22 18:00:00 NR -16.5517 73.6203 main 1716 1686 _____P____O___ -1 -15.9034 73.9406 99 -17.2000 73.3000 7 8 207
1855021S14076 1855 1 SI MM NOT_NAMED 1855-01-22 21:00:00 NR -16.9197 73.4274 main 1686 1665 _____P____P___ -1 -16.4493 73.6333 99 -17.3900 73.2215 7 8 205
1855021S14076 1855 1 SI MM NOT_NAMED 1855-01-23 00:00:00 NR -17.3082 73.2486 main 1654 1634 _____P____P___ -1 -17.0213 73.3477 99 -17.5950 73.1495 7 9 202
1855021S14076 1855 1 SI MM NOT_NAMED 1855-01-23 03:00:00 NR -17.7305 73.0880 main 1634 1612 _____P____P___ -1 -17.6084 73.0983 99 -17.8525 73.0777 7 9 198
1855021S14076 1855 1 SI MM NOT_NAMED 1855-01-23 06:00:00 NR -18.2000 72.9500 reunion main 1612 1581 _____O____O___ -1 -18.2000 72.9000 99 9.90000 -18.2000 73.0000 7 11 194
1855021S14076 1855 1 SI MM NOT_NAMED 1855-01-23 09:00:00 NR -18.7474 72.8289 main 1581 1562 _____P____P___ -1 -18.8092 72.7901 99 -18.6857 72.8677 7 12 190
1855021S14076 1855 1 SI MM NOT_NAMED 1855-01-23 12:00:00 NR -19.3496 72.7309 main 1562 1555 _____P____P___ -1 -19.4391 72.7274 99 -19.2601 72.7343 7 12 187
1855021S14076 1855 1 SI MM NOT_NAMED 1855-01-23 15:00:00 NR -19.9771 72.6698 main 1555 1552 _____P____P___ -1 -20.0747 72.7061 99 -19.8795 72.6336 7 13 183
1855021S14076 1855 1 SI MM NOT_NAMED 1855-01-23 18:00:00 NR -20.6003 72.6599 main 1552 1551 _____P____O___ -1 -20.7006 72.7198 99 -20.5000 72.6000 7 12 177
1855021S14076 1855 1 SI MM NOT_NAMED 1855-01-23 21:00:00 NR -21.2077 72.7256 main 1551 1551 _____P____P___ -1 -21.3014 72.7625 99 -21.1141 72.6887 7 12 172
1855021S14076 1855 1 SI MM NOT_NAMED 1855-01-24 00:00:00 NR -21.7872 72.8365 main 1564 1564 _____P____P___ -1 -21.8618 72.8278 99 -21.7126 72.8453 7 11 168
1855021S14076 1855 1 SI MM NOT_NAMED 1855-01-24 03:00:00 NR -22.3106 72.9693 main 1589 1589 _____P____P___ -1 -22.3665 72.9092 99 -22.2548 73.0295 7 10 166
1855021S14076 1855 1 SI MM NOT_NAMED 1855-01-24 06:00:00 NR -22.7500 73.1000 reunion main 1604 1604 _____O____O___ -1 -22.8000 73.0000 99 9.90000 -22.7000 73.2000 7 8 166
1855021S14076 1855 1 SI MM NOT_NAMED 1855-01-24 09:00:00 NR -23.0613 73.1785 main 1620 1620 _____P____P___ -1 -23.1099 73.0638 99 -23.0126 73.2932 7 6 165
1855021S14076 1855 1 SI MM NOT_NAMED 1855-01-24 12:00:00 NR -23.2884 73.2539 main 1633 1633 _____P____P___ -1 -23.3495 73.1419 99 -23.2273 73.3658 7 4 160
1855021S14076 1855 1 SI MM NOT_NAMED 1855-01-24 15:00:00 NR -23.4556 73.3315 main 1637 1637 _____P____P___ -1 -23.5330 73.2325 99 -23.3783 73.4305 7 3 154
1855021S14076 1855 1 SI MM NOT_NAMED 1855-01-24 18:00:00 NR -23.5872 73.4167 main 1649 1649 _____P____O___ -1 -23.6744 73.3334 99 -23.5000 73.5000 7 3 146
1855021S14076 1855 1 SI MM NOT_NAMED 1855-01-24 21:00:00 NR -23.7090 73.5157 main 1661 1661 _____P____P___ -1 -23.7878 73.4425 99 -23.6303 73.5890 7 3 140
1855021S14076 1855 1 SI MM NOT_NAMED 1855-01-25 00:00:00 NR -23.8148 73.6217 main 1673 1673 _____P____P___ -1 -23.8871 73.5580 99 -23.7425 73.6853 7 3 137
1855021S14076 1855 1 SI MM NOT_NAMED 1855-01-25 03:00:00 NR -23.9225 73.7334 main 1685 1685 _____P____P___ -1 -23.9865 73.6778 99 -23.8584 73.7890 7 3 139
1855021S14076 1855 1 SI MM NOT_NAMED 1855-01-25 06:00:00 NR -24.0500 73.8500 reunion main 1707 1707 _____O____O___ -1 -24.1000 73.8000 99 9.90000 -24.0000 73.9000 7 4 147
1855021S14076 1855 1 SI MM NOT_NAMED 1855-01-25 09:00:00 NR -24.2520 73.9685 main 1723 1723 _____P____P___ -1 -24.2957 73.9193 99 -24.2084 74.0177 7 5 152
1855021S14076 1855 1 SI MM NOT_NAMED 1855-01-25 12:00:00 NR -24.4707 74.0928 main 1738 1738 _____P____P___ -1 -24.4988 74.0434 99 -24.4425 74.1423 7 5 153
1855021S14076 1855 1 SI MM NOT_NAMED 1855-01-25 15:00:00 NR -24.6933 74.2207 main 1753 1753 _____P____P___ -1 -24.7063 74.1706 99 -24.6803 74.2708 7 5 152
1855021S14076 1855 1 SI MM NOT_NAMED 1855-01-25 18:00:00 NR -24.9076 74.3497 main 1768 1768 _____P____O___ -1 -24.9151 74.2994 99 -24.9000 74.4000 7 5 150
1855021S14076 1855 1 SI MM NOT_NAMED 1855-01-25 21:00:00 NR -25.0968 74.4788 main 1792 1792 _____P____P___ -1 -25.1220 74.4284 99 -25.0716 74.5292 7 4 148
1855021S14076 1855 1 SI MM NOT_NAMED 1855-01-26 00:00:00 NR -25.2732 74.6068 main 1808 1808 _____P____P___ -1 -25.3238 74.5559 99 -25.2225 74.6577 7 4 147
1855021S14076 1855 1 SI MM NOT_NAMED 1855-01-26 03:00:00 NR -25.4399 74.7313 main 1820 1820 _____P____P___ -1 -25.5175 74.6803 99 -25.3622 74.7823 7 4 146
1855021S14076 1855 1 SI MM NOT_NAMED 1855-01-26 06:00:00 NR -25.6000 74.8500 reunion main 1845 1845 _____O____O___ -1 -25.7000 74.8000 99 9.90000 -25.5000 74.9000 7 4 147
1855021S14076 1855 1 SI MM NOT_NAMED 1855-01-26 09:00:00 NR -25.7610 74.9594 main 1861 1861 _____P____P___ -1 -25.8721 74.9115 99 -25.6500 75.0073 7 4 149
1855021S14076 1855 1 SI MM NOT_NAMED 1855-01-26 12:00:00 NR -25.9175 75.0633 main 1874 1874 _____P____P___ -1 -26.0351 75.0189 99 -25.7999 75.1077 7 4 149
1855021S14076 1855 1 SI MM NOT_NAMED 1855-01-26 15:00:00 NR -26.0693 75.1634 main 1889 1889 _____P____P___ -1 -26.1886 75.1226 99 -25.9500 75.2042 7 3 149
1855021S14076 1855 1 SI MM NOT_NAMED 1855-01-26 18:00:00 NR -26.2161 75.2615 main 1902 1902 _____P____O___ -1 -26.3323 75.2230 99 -26.1000 75.3000 7 3 149
1855021S14076 1855 1 SI MM NOT_NAMED 1855-01-26 21:00:00 NR -26.3578 75.3591 main 1918 1918 _____P____P___ -1 -26.4656 75.3205 99 -26.2500 75.3977 7 3 150
1855021S14076 1855 1 SI MM NOT_NAMED 1855-01-27 00:00:00 NR -26.5076 75.4506 main 1931 1931 _____P____P___ -1 -26.5883 75.4156 99 -26.4001 75.4973 7 3 151
1855021S14076 1855 1 SI MM NOT_NAMED 1855-01-27 03:00:00 NR -26.6499 75.5385 main 1934 1934 _____P____P___ -1 -26.6999 75.5086 99 -26.5501 75.5982 7 3 151
1855021S14076 1855 1 SI MM NOT_NAMED 1855-01-27 06:00:00 NR -26.7800 75.6200 reunion main 1951 1951 _____O____O___ -1 -26.8000 75.6000 99 9.90000 -26.7000 75.7000 7 3 151
1855021S14076 1855 1 SI MM NOT_NAMED 1855-01-27 09:00:00 NR -26.8885 75.6902 main 1963 1963 _____P________ -1 -26.8885 75.6902 99 7 2 143
1855021S14076 1855 1 SI MM NOT_NAMED 1855-01-27 12:00:00 NR -26.9667 75.7792 main 1976 1976 _____P________ -1 -26.9667 75.7792 99 7 2 133
1855021S14076 1855 1 SI MM NOT_NAMED 1855-01-27 15:00:00 NR -27.0359 75.8674 main 1986 1986 _____P________ -1 -27.0359 75.8674 99 7 2 130
1855021S14076 1855 1 SI MM NOT_NAMED 1855-01-27 18:00:00 NR -27.0977 75.9548 main 1998 1998 _____P________ -1 -27.0977 75.9548 99 2 127
1855021S14076 1855 1 SI MM NOT_NAMED 1855-01-27 21:00:00 NR -27.1535 76.0416 main 2002 2002 _____P________ -1 -27.1535 76.0416 99 2 125
1855021S14076 1855 1 SI MM NOT_NAMED 1855-01-28 00:00:00 NR -27.2049 76.1280 main 2011 2011 _____P________ -1 -27.2049 76.1280 99 2 123
1855021S14076 1855 1 SI MM NOT_NAMED 1855-01-28 03:00:00 NR -27.2532 76.2140 main 2024 2024 _____P________ -1 -27.2532 76.2140 99 2 122
1855021S14076 1855 1 SI MM NOT_NAMED 1855-01-28 06:00:00 NR -27.3000 76.3000 reunion main 2033 _____O________ -1 -27.3000 76.3000 99 9.90000 2 122

About IBTrACS Database

This database is a web-friendly format of International Best Track Archive for Climate Stewardship (IBTrACS), a global best track data archive curated by NOAA dating back to 1842.

Updated: 2021-12-06